createdAt,value
2018-05-17T00:00:19.132Z,0
2018-05-17T00:00:51.225Z,0
2018-05-17T00:01:23.323Z,0
2018-05-17T00:03:14.873Z,0
2018-05-17T00:03:46.940Z,0
2018-05-17T00:04:19.039Z,0
2018-05-17T00:04:51.142Z,0
2018-05-17T00:05:23.235Z,0
2018-05-17T00:05:55.329Z,0
2018-05-17T00:06:27.415Z,0
2018-05-17T00:06:59.522Z,0
2018-05-17T00:08:50.942Z,0
2018-05-17T00:10:42.534Z,0
2018-05-17T00:11:14.635Z,0
2018-05-17T00:11:46.737Z,0
2018-05-17T00:12:18.831Z,0
2018-05-17T00:12:50.919Z,0
2018-05-17T00:13:23.013Z,0
2018-05-17T00:13:55.110Z,0
2018-05-17T00:14:27.210Z,0
2018-05-17T00:14:59.269Z,0
2018-05-17T00:15:31.342Z,0
2018-05-17T00:16:03.433Z,0
2018-05-17T00:16:35.530Z,0
2018-05-17T00:17:07.618Z,0
2018-05-17T00:18:59.015Z,0
2018-05-17T00:20:50.630Z,0
2018-05-17T00:21:22.716Z,0
2018-05-17T00:21:54.802Z,0
2018-05-17T00:22:26.866Z,0
2018-05-17T00:24:18.540Z,0
2018-05-17T00:24:50.642Z,0
2018-05-17T00:26:42.129Z,0
2018-05-17T00:27:14.223Z,0
2018-05-17T00:27:46.307Z,0
2018-05-17T00:28:18.403Z,0
2018-05-17T00:28:50.459Z,0
2018-05-17T00:29:22.538Z,0
2018-05-17T00:29:54.600Z,0
2018-05-17T00:30:26.670Z,0
2018-05-17T00:30:58.741Z,0
2018-05-17T00:31:30.840Z,0
2018-05-17T00:32:02.923Z,0
2018-05-17T00:32:35.019Z,0
2018-05-17T00:33:07.121Z,0
2018-05-17T00:33:39.188Z,0
2018-05-17T00:34:11.266Z,0
2018-05-17T00:34:43.371Z,0
2018-05-17T00:35:15.457Z,0
2018-05-17T00:35:47.574Z,0
2018-05-17T00:36:19.648Z,0
2018-05-17T00:36:51.742Z,0
2018-05-17T00:37:23.834Z,0
2018-05-17T00:37:55.914Z,0
2018-05-17T00:38:27.998Z,0
2018-05-17T00:40:19.304Z,0
2018-05-17T00:42:10.969Z,0
2018-05-17T00:42:43.059Z,0
2018-05-17T00:43:15.149Z,0
2018-05-17T00:43:47.248Z,0
2018-05-17T00:44:19.343Z,0
2018-05-17T00:44:51.444Z,0
2018-05-17T00:45:23.546Z,0
2018-05-17T00:45:55.640Z,0
2018-05-17T00:46:27.725Z,0
2018-05-17T00:46:59.805Z,0
2018-05-17T00:47:31.908Z,0
2018-05-17T00:48:03.994Z,0
2018-05-17T00:48:36.066Z,0
2018-05-17T00:49:08.166Z,0
2018-05-17T00:49:40.245Z,0
2018-05-17T00:50:12.344Z,0
2018-05-17T00:50:44.434Z,0
2018-05-17T00:52:35.821Z,0
2018-05-17T00:53:07.922Z,0
2018-05-17T00:53:40.013Z,0
2018-05-17T00:54:12.098Z,0
2018-05-17T00:54:44.218Z,0
2018-05-17T00:55:16.285Z,0
2018-05-17T00:55:48.363Z,0
2018-05-17T00:57:40.147Z,0
2018-05-17T00:58:12.227Z,0
2018-05-17T00:58:44.332Z,0
2018-05-17T00:59:16.398Z,0
2018-05-17T00:59:48.487Z,0
2018-05-17T01:00:20.567Z,0
2018-05-17T01:00:52.647Z,0
2018-05-17T01:01:24.748Z,0
2018-05-17T01:01:56.840Z,0
2018-05-17T01:02:28.949Z,0
2018-05-17T01:03:01.014Z,0
2018-05-17T01:04:52.567Z,0
2018-05-17T01:05:24.653Z,0
2018-05-17T01:05:56.739Z,0
2018-05-17T01:06:28.845Z,0
2018-05-17T01:07:00.931Z,0
2018-05-17T01:07:33.036Z,0
2018-05-17T01:08:05.127Z,0
2018-05-17T01:08:37.213Z,0
2018-05-17T01:09:09.293Z,0
2018-05-17T01:09:41.393Z,0
2018-05-17T01:10:13.488Z,0
2018-05-17T01:10:45.581Z,0
2018-05-17T01:11:17.657Z,0
2018-05-17T01:11:49.759Z,0
2018-05-17T06:24:57.833Z,60
2018-05-17T06:25:29.840Z,60
2018-05-17T06:26:01.856Z,65
2018-05-17T06:26:33.846Z,65
2018-05-17T06:27:05.859Z,65
2018-05-17T06:27:37.863Z,70
2018-05-17T06:28:09.891Z,70
2018-05-17T06:28:41.897Z,70
2018-05-17T06:29:13.891Z,70
2018-05-17T06:29:45.955Z,65
2018-05-17T06:30:18.126Z,65
2018-05-17T06:30:50.267Z,65
2018-05-17T06:31:22.298Z,65
2018-05-17T06:31:54.330Z,65
2018-05-17T06:32:26.311Z,65
2018-05-17T06:32:58.409Z,65
2018-05-17T06:33:30.456Z,70
2018-05-17T06:34:02.505Z,70
2018-05-17T06:34:34.622Z,75
2018-05-17T06:35:06.650Z,75
2018-05-17T06:35:38.772Z,75
2018-05-17T06:36:10.934Z,75
2018-05-17T06:36:42.938Z,75
2018-05-17T06:37:14.961Z,75
2018-05-17T06:37:47.007Z,75
2018-05-17T06:38:19.068Z,75
2018-05-17T06:38:51.132Z,70
2018-05-17T06:39:23.168Z,70
2018-05-17T06:39:55.263Z,70
2018-05-17T06:40:27.284Z,70
2018-05-17T06:41:00.001Z,70
2018-05-17T06:41:32.036Z,70
2018-05-17T06:42:04.130Z,70
2018-05-17T06:42:36.163Z,70
2018-05-17T06:43:08.240Z,70
2018-05-17T06:43:40.270Z,70
2018-05-17T06:44:12.370Z,70
2018-05-17T06:44:44.412Z,75
2018-05-17T06:45:16.424Z,75
2018-05-17T06:45:48.512Z,75
2018-05-17T06:46:20.544Z,75
2018-05-17T06:46:53.193Z,80
2018-05-17T06:47:25.211Z,85
2018-05-17T06:47:57.243Z,80
2018-05-17T06:48:29.293Z,75
2018-05-17T06:49:01.286Z,75
2018-05-17T06:49:33.346Z,75
2018-05-17T06:50:05.393Z,80
2018-05-17T06:50:40.104Z,80
2018-05-17T06:51:12.101Z,80
2018-05-17T06:51:44.135Z,80
2018-05-17T06:52:17.011Z,80
2018-05-17T06:52:49.103Z,80
2018-05-17T06:53:21.135Z,80
2018-05-17T06:53:53.149Z,80
2018-05-17T06:54:25.244Z,85
2018-05-17T06:54:57.257Z,90
2018-05-17T06:55:29.350Z,90
2018-05-17T06:56:01.386Z,90
2018-05-17T06:56:33.371Z,90
2018-05-17T06:57:05.415Z,90
2018-05-17T06:57:37.473Z,90
2018-05-17T06:58:09.470Z,90
2018-05-17T06:58:41.607Z,90
2018-05-17T06:59:13.657Z,90
2018-05-17T06:59:45.691Z,90
2018-05-17T07:00:17.785Z,90
2018-05-17T07:00:49.946Z,90
2018-05-17T07:01:21.913Z,90
2018-05-17T07:01:53.925Z,90
2018-05-17T07:02:25.948Z,90
2018-05-17T07:02:58.547Z,90
2018-05-17T07:03:30.528Z,90
2018-05-17T07:04:02.546Z,95
2018-05-17T07:04:34.600Z,90
2018-05-17T07:05:09.463Z,90
2018-05-17T07:05:41.517Z,90
2018-05-17T07:06:13.516Z,90
2018-05-17T07:06:45.591Z,95
2018-05-17T07:07:17.603Z,95
2018-05-17T07:07:49.656Z,95
2018-05-17T07:08:21.828Z,100
2018-05-17T07:08:53.839Z,100
2018-05-17T07:09:25.858Z,100
2018-05-17T07:09:57.920Z,100
2018-05-17T07:10:30.081Z,100
2018-05-17T07:11:02.247Z,100
2018-05-17T07:11:34.314Z,100
2018-05-17T07:12:06.297Z,100
2018-05-17T07:12:38.312Z,95
2018-05-17T07:13:10.416Z,100
2018-05-17T07:13:42.446Z,100
2018-05-17T07:14:14.669Z,100
2018-05-17T07:14:46.708Z,100
2018-05-17T07:15:18.755Z,95
2018-05-17T07:15:50.781Z,100
2018-05-17T07:16:22.815Z,100
2018-05-17T07:16:54.850Z,100
2018-05-17T07:17:26.921Z,105
2018-05-17T07:17:59.144Z,105
2018-05-17T07:18:31.722Z,110
2018-05-17T07:19:03.665Z,110
2018-05-17T07:19:35.685Z,115
2018-05-17T07:20:07.701Z,130
2018-05-17T07:20:39.734Z,120
2018-05-17T07:21:11.768Z,130
2018-05-17T07:21:43.796Z,150
2018-05-17T07:22:15.904Z,135
2018-05-17T07:22:47.928Z,125
2018-05-17T07:23:20.099Z,125
2018-05-17T07:23:52.142Z,120
2018-05-17T07:24:24.244Z,120
2018-05-17T07:24:56.265Z,120
2018-05-17T07:25:28.266Z,125
2018-05-17T07:26:00.385Z,125
2018-05-17T07:26:32.454Z,120
2018-05-17T07:27:05.217Z,120
2018-05-17T07:27:37.243Z,120
2018-05-17T07:28:09.280Z,120
2018-05-17T07:28:41.293Z,115
2018-05-17T07:29:13.351Z,115
2018-05-17T07:29:45.470Z,115
2018-05-17T07:30:17.588Z,115
2018-05-17T07:30:49.715Z,115
2018-05-17T07:31:22.020Z,115
2018-05-17T07:31:54.026Z,115
2018-05-17T07:32:26.038Z,115
2018-05-17T07:32:58.030Z,115
2018-05-17T07:33:30.054Z,115
2018-05-17T07:34:02.105Z,110
2018-05-17T07:34:34.126Z,110
2018-05-17T07:35:06.157Z,105
2018-05-17T07:35:38.219Z,105
2018-05-17T07:36:10.237Z,110
2018-05-17T07:36:42.246Z,110
2018-05-17T07:37:14.362Z,115
2018-05-17T07:37:46.390Z,115
2018-05-17T07:38:18.397Z,120
2018-05-17T07:38:50.451Z,120
2018-05-17T07:39:22.710Z,120
2018-05-17T07:39:54.756Z,120
2018-05-17T07:40:26.845Z,120
2018-05-17T07:40:58.865Z,120
2018-05-17T07:41:30.901Z,120
2018-05-17T07:42:02.961Z,115
2018-05-17T07:42:34.988Z,110
2018-05-17T07:43:06.997Z,115
2018-05-17T07:43:38.971Z,115
2018-05-17T07:44:10.997Z,115
2018-05-17T07:44:43.010Z,115
2018-05-17T07:45:15.031Z,115
2018-05-17T07:45:47.124Z,115
2018-05-17T07:46:19.143Z,110
2018-05-17T07:46:51.355Z,110
2018-05-17T07:47:23.537Z,110
2018-05-17T07:47:55.586Z,110
2018-05-17T07:48:27.585Z,115
2018-05-17T07:48:59.595Z,120
2018-05-17T07:49:31.677Z,125
2018-05-17T07:50:03.667Z,125
2018-05-17T07:50:35.691Z,130
2018-05-17T07:51:07.803Z,160
2018-05-17T07:51:39.789Z,130
2018-05-17T07:52:12.023Z,125
2018-05-17T07:52:43.982Z,125
2018-05-17T07:53:16.038Z,130
2018-05-17T07:53:48.073Z,130
2018-05-17T07:54:20.072Z,130
2018-05-17T07:54:52.090Z,130
2018-05-17T07:55:24.131Z,135
2018-05-17T07:55:56.121Z,125
2018-05-17T07:56:28.174Z,120
2018-05-17T07:57:00.240Z,120
2018-05-17T07:57:32.221Z,120
2018-05-17T07:58:04.234Z,125
2018-05-17T07:58:36.401Z,130
2018-05-17T07:59:08.474Z,140
2018-05-17T07:59:40.493Z,140
2018-05-17T08:00:12.502Z,145
2018-05-17T08:00:44.510Z,165
2018-05-17T08:01:16.582Z,140
2018-05-17T08:01:48.792Z,140
2018-05-17T08:02:20.808Z,140
2018-05-17T08:02:52.823Z,135
2018-05-17T08:03:24.824Z,140
2018-05-17T08:03:56.792Z,160
2018-05-17T08:04:30.076Z,150
2018-05-17T08:05:02.195Z,130
2018-05-17T08:05:34.284Z,130
2018-05-17T08:06:06.296Z,135
2018-05-17T08:06:38.320Z,140
2018-05-17T08:07:10.320Z,140
2018-05-17T08:07:42.324Z,140
2018-05-17T08:08:14.361Z,140
2018-05-17T08:08:46.348Z,145
2018-05-17T08:09:18.570Z,140
2018-05-17T08:09:50.548Z,140
2018-05-17T08:10:22.569Z,145
2018-05-17T08:10:54.718Z,155
2018-05-17T08:11:26.809Z,140
2018-05-17T08:11:58.827Z,150
2018-05-17T08:12:30.937Z,135
2018-05-17T08:13:02.958Z,135
2018-05-17T08:13:35.012Z,130
2018-05-17T08:14:06.994Z,125
2018-05-17T08:14:39.047Z,120
2018-05-17T08:15:11.126Z,115
2018-05-17T08:15:43.143Z,115
2018-05-17T08:16:16.553Z,115
2018-05-17T08:16:48.726Z,120
2018-05-17T08:17:20.808Z,120
2018-05-17T08:17:52.966Z,125
2018-05-17T08:18:25.016Z,130
2018-05-17T08:18:57.034Z,145
2018-05-17T08:19:29.173Z,125
2018-05-17T08:20:01.238Z,125
2018-05-17T08:20:33.395Z,120
2018-05-17T08:21:05.505Z,120
2018-05-17T08:21:37.589Z,125
2018-05-17T08:22:09.749Z,135
2018-05-17T08:22:42.921Z,150
2018-05-17T08:23:15.073Z,155
2018-05-17T08:23:47.971Z,150
2018-05-17T08:24:20.005Z,155
2018-05-17T08:24:55.584Z,160
2018-05-17T08:25:27.913Z,155
2018-05-17T08:26:00.023Z,150
2018-05-17T08:26:32.122Z,145
2018-05-17T08:27:07.055Z,140
2018-05-17T08:27:40.502Z,135
2018-05-17T08:28:14.070Z,120
2018-05-17T08:28:48.517Z,115
2018-05-17T08:29:21.734Z,110
2018-05-17T08:29:55.714Z,115
2018-05-17T08:30:30.425Z,115
2018-05-17T08:31:04.323Z,120
2018-05-17T08:31:40.104Z,210
2018-05-17T08:32:15.056Z,215
2018-05-17T08:32:51.749Z,175
2018-05-17T08:33:27.267Z,200
2018-05-17T08:34:01.500Z,240
2018-05-17T08:34:35.135Z,185
2018-05-17T08:35:07.855Z,180
2018-05-17T08:35:40.936Z,180
2018-05-17T08:36:14.385Z,170
2018-05-17T08:36:48.040Z,165
2018-05-17T08:37:21.753Z,165
2018-05-17T08:37:55.599Z,170
2018-05-17T08:38:27.718Z,165
2018-05-17T08:38:59.781Z,165
2018-05-17T08:39:31.783Z,165
2018-05-17T08:40:04.012Z,165
2018-05-17T08:40:36.204Z,155
2018-05-17T08:41:08.458Z,190
2018-05-17T08:41:40.711Z,215
2018-05-17T08:42:12.790Z,195
2018-05-17T08:42:45.014Z,155
2018-05-17T08:43:16.949Z,150
2018-05-17T08:43:49.075Z,155
2018-05-17T08:44:22.825Z,165
2018-05-17T08:44:56.005Z,175
2018-05-17T08:45:29.643Z,190
2018-05-17T08:46:04.495Z,180
2018-05-17T08:46:36.781Z,180
2018-05-17T08:47:10.508Z,175
2018-05-17T08:47:42.528Z,170
2018-05-17T08:48:14.604Z,170
2018-05-17T08:48:46.977Z,165
2018-05-17T08:49:19.165Z,165
2018-05-17T08:49:51.341Z,165
2018-05-17T08:50:23.481Z,165
2018-05-17T08:50:55.654Z,165
2018-05-17T08:51:27.673Z,155
2018-05-17T08:51:59.783Z,150
2018-05-17T08:52:31.919Z,150
2018-05-17T08:53:04.011Z,160
2018-05-17T08:53:36.060Z,165
2018-05-17T08:54:08.102Z,165
2018-05-17T08:54:40.197Z,160
2018-05-17T08:55:12.314Z,150
2018-05-17T08:55:44.390Z,145
2018-05-17T08:56:16.424Z,145
2018-05-17T08:56:51.873Z,155
2018-05-17T08:57:23.949Z,170
2018-05-17T08:57:55.935Z,170
2018-05-17T08:58:28.032Z,165
2018-05-17T08:59:00.174Z,155
2018-05-17T08:59:32.343Z,170
2018-05-17T09:00:05.328Z,145
2018-05-17T09:00:37.412Z,150
2018-05-17T09:01:10.082Z,140
2018-05-17T09:01:42.220Z,120
2018-05-17T09:02:14.273Z,120
2018-05-17T09:02:46.316Z,115
2018-05-17T09:03:18.355Z,165
2018-05-17T09:03:50.401Z,120
2018-05-17T09:04:22.412Z,150
2018-05-17T09:04:54.789Z,110
2018-05-17T09:05:29.929Z,105
2018-05-17T09:06:02.154Z,115
2018-05-17T09:06:34.203Z,125
2018-05-17T09:07:07.007Z,120
2018-05-17T09:07:39.703Z,120
2018-05-17T09:08:11.966Z,160
2018-05-17T09:08:44.060Z,160
2018-05-17T09:09:16.115Z,115
2018-05-17T09:09:51.095Z,170
2018-05-17T09:10:25.809Z,170
2018-05-17T09:11:00.260Z,175
2018-05-17T09:11:35.182Z,185
2018-05-17T09:12:08.676Z,205
2018-05-17T09:12:45.819Z,205
2018-05-17T09:13:18.530Z,210
2018-05-17T09:13:50.741Z,215
2018-05-17T09:14:22.841Z,215
2018-05-17T09:14:54.868Z,220
2018-05-17T09:15:26.927Z,205
2018-05-17T09:15:58.960Z,215
2018-05-17T09:16:31.064Z,205
2018-05-17T09:17:03.136Z,195
2018-05-17T09:17:35.183Z,180
2018-05-17T09:18:07.300Z,170
2018-05-17T09:18:39.323Z,165
2018-05-17T09:19:11.325Z,160
2018-05-17T09:19:43.910Z,160
2018-05-17T09:20:16.227Z,165
2018-05-17T09:20:48.204Z,165
2018-05-17T09:21:20.795Z,165
2018-05-17T09:21:52.945Z,165
2018-05-17T09:22:25.060Z,125
2018-05-17T09:22:57.555Z,165
2018-05-17T09:23:29.628Z,185
2018-05-17T09:24:01.801Z,185
2018-05-17T09:24:33.995Z,185
2018-05-17T09:25:06.064Z,185
2018-05-17T09:25:38.053Z,190
2018-05-17T09:26:10.102Z,200
2018-05-17T09:26:42.129Z,205
2018-05-17T09:27:14.151Z,205
2018-05-17T09:27:46.147Z,205
2018-05-17T09:28:18.162Z,200
2018-05-17T09:28:50.232Z,200
2018-05-17T09:29:22.276Z,205
2018-05-17T09:29:54.341Z,210
2018-05-17T09:30:26.336Z,215
2018-05-17T09:30:58.385Z,215
2018-05-17T09:31:30.408Z,215
2018-05-17T09:32:02.472Z,210
2018-05-17T09:32:34.518Z,200
2018-05-17T09:33:06.557Z,190
2018-05-17T09:33:38.599Z,185
2018-05-17T09:34:10.606Z,180
2018-05-17T09:34:42.643Z,180
2018-05-17T09:35:14.688Z,180
2018-05-17T09:35:47.169Z,180
2018-05-17T09:36:19.303Z,180
2018-05-17T09:36:51.368Z,190
2018-05-17T09:37:23.390Z,190
2018-05-17T09:37:55.434Z,195
2018-05-17T09:38:27.461Z,195
2018-05-17T09:38:59.515Z,195
2018-05-17T09:39:31.541Z,195
2018-05-17T09:40:03.590Z,195
2018-05-17T09:40:35.625Z,195
2018-05-17T09:41:07.759Z,195
2018-05-17T09:41:39.759Z,190
2018-05-17T09:42:11.784Z,210
2018-05-17T09:42:43.839Z,185
2018-05-17T09:43:15.893Z,205
2018-05-17T09:43:47.932Z,155
2018-05-17T09:44:19.984Z,165
2018-05-17T09:44:52.581Z,200
2018-05-17T09:45:24.618Z,205
2018-05-17T09:45:56.646Z,205
2018-05-17T09:46:28.783Z,205
2018-05-17T09:47:00.791Z,210
2018-05-17T09:47:33.874Z,210
2018-05-17T09:48:05.878Z,180
2018-05-17T09:48:37.898Z,210
2018-05-17T09:49:10.543Z,175
2018-05-17T09:49:42.584Z,150
2018-05-17T09:50:14.661Z,180
2018-05-17T09:50:46.720Z,160
2018-05-17T09:51:18.801Z,135
2018-05-17T09:51:50.842Z,125
2018-05-17T09:52:22.872Z,160
2018-05-17T09:52:54.913Z,150
2018-05-17T09:53:26.894Z,155
2018-05-17T09:53:59.506Z,155
2018-05-17T09:54:31.522Z,150
2018-05-17T09:55:03.612Z,140
2018-05-17T09:55:35.699Z,160
2018-05-17T09:56:07.727Z,160
2018-05-17T09:56:39.749Z,155
2018-05-17T09:57:11.935Z,195
2018-05-17T09:57:44.010Z,210
2018-05-17T09:58:16.196Z,220
2018-05-17T09:58:48.352Z,195
2018-05-17T09:59:20.490Z,210
2018-05-17T09:59:52.519Z,210
2018-05-17T10:00:24.554Z,215
2018-05-17T10:00:56.624Z,175
2018-05-17T10:01:28.682Z,170
2018-05-17T10:02:00.684Z,175
2018-05-17T10:02:32.698Z,165
2018-05-17T10:03:04.786Z,160
2018-05-17T10:03:36.813Z,160
2018-05-17T10:04:08.978Z,160
2018-05-17T10:04:40.992Z,175
2018-05-17T10:05:13.039Z,175
2018-05-17T10:05:47.870Z,115
2018-05-17T10:06:19.895Z,125
2018-05-17T10:06:53.335Z,105
2018-05-17T10:07:30.282Z,130
2018-05-17T10:08:02.328Z,150
2018-05-17T10:08:35.779Z,180
2018-05-17T10:09:07.817Z,195
2018-05-17T10:09:40.790Z,205
2018-05-17T10:10:12.825Z,215
2018-05-17T10:10:44.944Z,220
2018-05-17T10:11:17.032Z,225
2018-05-17T10:11:49.001Z,225
2018-05-17T10:12:21.018Z,210
2018-05-17T10:12:53.138Z,200
2018-05-17T10:13:25.250Z,175
2018-05-17T10:13:57.263Z,155
2018-05-17T10:14:29.330Z,160
2018-05-17T10:15:01.428Z,155
2018-05-17T10:15:33.747Z,150
2018-05-17T10:16:05.854Z,150
2018-05-17T10:16:37.871Z,150
2018-05-17T10:17:10.003Z,150
2018-05-17T10:17:42.013Z,155
2018-05-17T10:18:14.032Z,155
2018-05-17T10:18:46.074Z,155
2018-05-17T10:19:18.130Z,160
2018-05-17T10:19:50.182Z,160
2018-05-17T10:20:22.217Z,165
2018-05-17T10:20:54.228Z,170
2018-05-17T10:21:26.488Z,170
2018-05-17T10:21:59.816Z,170
2018-05-17T10:22:31.966Z,175
2018-05-17T10:23:04.224Z,175
2018-05-17T10:23:36.228Z,175
2018-05-17T10:24:08.279Z,175
2018-05-17T10:24:40.290Z,175
2018-05-17T10:25:12.308Z,175
2018-05-17T10:25:44.330Z,175
2018-05-17T10:26:16.344Z,175
2018-05-17T10:26:48.370Z,180
2018-05-17T10:27:20.464Z,180
2018-05-17T10:27:52.638Z,185
2018-05-17T10:28:24.646Z,185
2018-05-17T10:28:56.600Z,185
2018-05-17T10:29:28.836Z,190
2018-05-17T10:30:00.870Z,175
2018-05-17T10:30:32.955Z,195
2018-05-17T10:31:05.105Z,165
2018-05-17T10:31:37.836Z,195
2018-05-17T10:32:09.862Z,190
2018-05-17T10:32:44.654Z,150
2018-05-17T10:33:16.694Z,205
2018-05-17T10:33:48.812Z,210
2018-05-17T10:34:20.832Z,215
2018-05-17T10:34:53.001Z,210
2018-05-17T10:35:25.015Z,210
2018-05-17T10:35:57.031Z,215
2018-05-17T10:36:29.084Z,215
2018-05-17T10:37:01.145Z,210
2018-05-17T10:37:33.207Z,200
2018-05-17T10:38:05.245Z,190
2018-05-17T10:38:37.321Z,190
2018-05-17T10:39:09.359Z,185
2018-05-17T10:39:41.422Z,130
2018-05-17T10:40:13.541Z,135
2018-05-17T10:40:45.570Z,185
2018-05-17T10:41:17.596Z,195
2018-05-17T10:41:49.665Z,210
2018-05-17T10:42:21.739Z,205
2018-05-17T10:42:53.821Z,205
2018-05-17T10:43:25.855Z,215
2018-05-17T10:43:57.807Z,155
2018-05-17T10:44:30.578Z,180
2018-05-17T10:45:02.626Z,170
2018-05-17T10:45:34.776Z,165
2018-05-17T10:46:06.877Z,190
2018-05-17T10:46:38.989Z,170
2018-05-17T10:47:11.036Z,180
2018-05-17T10:47:43.154Z,185
2018-05-17T10:48:15.185Z,120
2018-05-17T10:48:47.231Z,190
2018-05-17T10:49:19.367Z,180
2018-05-17T10:49:51.420Z,185
2018-05-17T10:50:23.593Z,185
2018-05-17T10:50:55.714Z,185
2018-05-17T10:51:27.827Z,185
2018-05-17T10:51:59.852Z,190
2018-05-17T10:52:31.888Z,190
2018-05-17T10:53:03.954Z,190
2018-05-17T10:53:35.958Z,150
2018-05-17T10:54:07.990Z,195
2018-05-17T10:54:40.007Z,195
2018-05-17T10:55:12.061Z,200
2018-05-17T10:55:44.097Z,200
2018-05-17T10:56:16.056Z,200
2018-05-17T10:56:48.209Z,205
2018-05-17T10:57:21.107Z,195
2018-05-17T10:57:53.115Z,195
2018-05-17T10:58:25.138Z,195
2018-05-17T10:58:57.179Z,195
2018-05-17T10:59:29.330Z,195
2018-05-17T11:00:01.421Z,200
2018-05-17T11:00:33.442Z,200
2018-05-17T11:01:05.482Z,200
2018-05-17T11:01:37.504Z,195
2018-05-17T11:02:09.615Z,155
2018-05-17T11:02:41.789Z,195
2018-05-17T11:03:13.738Z,190
2018-05-17T11:03:45.738Z,200
2018-05-17T11:04:20.896Z,205
2018-05-17T11:04:53.005Z,200
2018-05-17T11:05:25.032Z,200
2018-05-17T11:05:57.104Z,200
2018-05-17T11:06:29.132Z,205
2018-05-17T11:07:01.182Z,205
2018-05-17T11:07:33.199Z,210
2018-05-17T11:08:05.225Z,210
2018-05-17T11:08:37.236Z,210
2018-05-17T11:09:09.257Z,210
2018-05-17T11:09:41.285Z,205
2018-05-17T11:10:13.324Z,210
2018-05-17T11:10:45.330Z,215
2018-05-17T11:11:17.461Z,220
2018-05-17T11:11:49.509Z,225
2018-05-17T11:12:21.714Z,225
2018-05-17T11:12:53.715Z,225
2018-05-17T11:13:25.759Z,225
2018-05-17T11:13:57.794Z,230
2018-05-17T11:14:30.671Z,225
2018-05-17T11:15:02.739Z,225
2018-05-17T11:15:34.779Z,225
2018-05-17T11:16:06.804Z,220
2018-05-17T11:16:38.832Z,215
2018-05-17T11:17:10.964Z,210
2018-05-17T11:17:42.955Z,210
2018-05-17T11:18:14.969Z,210
2018-05-17T11:18:46.947Z,210
2018-05-17T11:19:18.971Z,215
2018-05-17T11:19:51.028Z,215
2018-05-17T11:20:23.062Z,215
2018-05-17T11:20:55.098Z,215
2018-05-17T11:21:27.107Z,215
2018-05-17T11:21:59.141Z,220
2018-05-17T11:22:31.154Z,220
2018-05-17T11:23:03.161Z,220
2018-05-17T11:23:35.205Z,225
2018-05-17T11:24:07.225Z,225
2018-05-17T11:24:39.246Z,165
2018-05-17T11:25:11.352Z,215
2018-05-17T11:25:43.384Z,230
2018-05-17T11:26:15.429Z,220
2018-05-17T11:26:47.454Z,220
2018-05-17T11:27:19.504Z,230
2018-05-17T11:27:51.661Z,230
2018-05-17T11:28:23.737Z,235
2018-05-17T11:28:58.690Z,235
2018-05-17T11:29:31.418Z,240
2018-05-17T11:30:03.447Z,245
2018-05-17T11:30:35.547Z,250
2018-05-17T11:31:07.636Z,250
2018-05-17T11:31:39.653Z,255
2018-05-17T11:32:11.668Z,255
2018-05-17T11:32:43.797Z,260
2018-05-17T11:33:15.833Z,265
2018-05-17T11:33:47.988Z,265
2018-05-17T11:34:20.615Z,275
2018-05-17T11:34:52.663Z,265
2018-05-17T11:35:24.708Z,290
2018-05-17T11:35:56.705Z,245
2018-05-17T11:36:28.719Z,240
2018-05-17T11:37:00.833Z,250
2018-05-17T11:37:32.961Z,305
2018-05-17T11:38:04.999Z,305
2018-05-17T11:38:37.186Z,310
2018-05-17T11:39:09.309Z,285
2018-05-17T11:39:41.361Z,315
2018-05-17T11:40:13.393Z,325
2018-05-17T11:40:45.443Z,325
2018-05-17T11:41:17.501Z,305
2018-05-17T11:41:49.534Z,320
2018-05-17T11:42:21.539Z,310
2018-05-17T11:42:53.588Z,290
2018-05-17T11:43:25.643Z,225
2018-05-17T11:43:57.707Z,310
2018-05-17T11:44:29.796Z,320
2018-05-17T11:45:01.820Z,325
2018-05-17T11:45:33.837Z,200
2018-05-17T11:46:05.887Z,310
2018-05-17T11:46:37.879Z,270
2018-05-17T11:47:09.890Z,220
2018-05-17T11:47:42.069Z,290
2018-05-17T11:48:14.102Z,305
2018-05-17T11:48:46.147Z,300
2018-05-17T11:49:18.175Z,310
2018-05-17T11:49:50.235Z,310
2018-05-17T11:50:22.391Z,315
2018-05-17T11:50:54.438Z,310
2018-05-17T11:51:26.474Z,310
2018-05-17T11:51:58.513Z,320
2018-05-17T11:52:30.562Z,320
2018-05-17T11:53:02.619Z,320
2018-05-17T11:53:34.720Z,325
2018-05-17T11:54:06.821Z,330
2018-05-17T11:54:38.847Z,335
2018-05-17T11:55:10.994Z,330
2018-05-17T11:55:43.031Z,340
2018-05-17T11:56:15.051Z,360
2018-05-17T11:56:47.049Z,355
2018-05-17T11:57:19.060Z,360
2018-05-17T11:57:51.110Z,360
2018-05-17T11:58:23.112Z,365
2018-05-17T11:58:55.111Z,365
2018-05-17T11:59:27.151Z,355
2018-05-17T11:59:59.129Z,355
2018-05-17T12:00:31.201Z,350
2018-05-17T12:01:03.327Z,350
2018-05-17T12:01:35.696Z,350
2018-05-17T12:02:07.722Z,350
2018-05-17T12:02:40.039Z,355
2018-05-17T12:03:12.027Z,365
2018-05-17T12:03:44.156Z,365
2018-05-17T12:04:16.193Z,350
2018-05-17T12:04:48.219Z,370
2018-05-17T12:05:20.242Z,370
2018-05-17T12:05:52.327Z,365
2018-05-17T12:06:24.368Z,390
2018-05-17T12:06:56.363Z,400
2018-05-17T12:07:28.490Z,295
2018-05-17T12:08:00.439Z,345
2018-05-17T12:08:32.434Z,270
2018-05-17T12:09:04.493Z,245
2018-05-17T12:09:36.607Z,250
2018-05-17T12:10:08.614Z,455
2018-05-17T12:10:40.674Z,395
2018-05-17T12:11:12.682Z,245
2018-05-17T12:11:44.834Z,450
2018-05-17T12:12:16.913Z,250
2018-05-17T12:12:48.941Z,345
2018-05-17T12:13:20.925Z,420
2018-05-17T12:13:52.973Z,360
2018-05-17T12:14:25.048Z,430
2018-05-17T12:14:57.061Z,430
2018-05-17T12:15:29.100Z,430
2018-05-17T12:16:01.146Z,435
2018-05-17T12:16:33.245Z,450
2018-05-17T12:17:05.400Z,370
2018-05-17T12:17:37.403Z,400
2018-05-17T12:18:09.415Z,440
2018-05-17T12:18:41.443Z,485
2018-05-17T12:19:14.240Z,305
2018-05-17T12:19:46.289Z,225
2018-05-17T12:20:18.311Z,260
2018-05-17T12:20:50.335Z,510
2018-05-17T12:21:22.374Z,510
2018-05-17T12:21:54.403Z,520
2018-05-17T12:22:26.414Z,345
2018-05-17T12:22:58.513Z,445
2018-05-17T12:23:30.518Z,480
2018-05-17T12:24:02.530Z,520
2018-05-17T12:24:34.539Z,540
2018-05-17T12:25:06.562Z,565
2018-05-17T12:25:38.587Z,580
2018-05-17T12:26:10.618Z,575
2018-05-17T12:26:42.641Z,605
2018-05-17T12:27:14.639Z,395
2018-05-17T12:27:46.672Z,345
2018-05-17T12:28:18.692Z,335
2018-05-17T12:28:50.717Z,385
2018-05-17T12:29:22.714Z,470
2018-05-17T12:29:55.330Z,460
2018-05-17T12:30:27.392Z,555
2018-05-17T12:30:59.362Z,550
2018-05-17T12:31:31.413Z,550
2018-05-17T12:32:03.611Z,545
2018-05-17T12:32:35.580Z,555
2018-05-17T12:33:07.629Z,550
2018-05-17T12:33:39.659Z,565
2018-05-17T12:34:11.842Z,560
2018-05-17T12:34:43.999Z,570
2018-05-17T12:35:16.055Z,575
2018-05-17T12:35:48.146Z,585
2018-05-17T12:36:20.197Z,595
2018-05-17T12:36:52.237Z,605
2018-05-17T12:37:24.294Z,610
2018-05-17T12:37:56.328Z,600
2018-05-17T12:38:28.361Z,615
2018-05-17T12:39:00.408Z,640
2018-05-17T12:39:33.042Z,665
2018-05-17T12:40:05.084Z,695
2018-05-17T12:40:37.104Z,515
2018-05-17T12:41:09.093Z,725
2018-05-17T12:41:41.098Z,475
2018-05-17T12:42:13.219Z,715
2018-05-17T12:42:45.368Z,495
2018-05-17T12:43:17.339Z,695
2018-05-17T12:43:49.406Z,695
2018-05-17T12:44:21.462Z,690
2018-05-17T12:44:53.497Z,695
2018-05-17T12:45:25.592Z,705
2018-05-17T12:45:57.591Z,720
2018-05-17T12:46:29.638Z,740
2018-05-17T12:47:01.684Z,755
2018-05-17T12:47:33.744Z,765
2018-05-17T12:48:05.785Z,680
2018-05-17T12:48:37.850Z,795
2018-05-17T12:49:09.836Z,800
2018-05-17T12:49:41.867Z,390
2018-05-17T12:50:13.886Z,355
2018-05-17T12:50:46.131Z,560
2018-05-17T12:51:18.102Z,780
2018-05-17T12:51:50.131Z,780
2018-05-17T12:52:22.341Z,785
2018-05-17T12:52:54.416Z,770
2018-05-17T12:53:26.496Z,785
2018-05-17T12:53:58.523Z,600
2018-05-17T12:54:30.583Z,810
2018-05-17T12:55:02.580Z,830
2018-05-17T12:55:34.663Z,560
2018-05-17T12:56:06.736Z,580
2018-05-17T12:56:38.848Z,565
2018-05-17T12:57:10.875Z,540
2018-05-17T12:57:42.896Z,785